Hawaii Volcanoes National Park, HI

5:48 PM HST on July 29, 2014 (GMT -1000)
Bradshaw Army Air Field (PHSF) Elev 6191 ft | 19.76 °N, 155.55 °W | Change Station

Current weather conditions updated 52 minutes ago

Clear
Clear
69 °F
Feels Like 69 °F
N
10
Wind Variable Wind from WSW
Gusts 20 mph

Tomorrow is forecast to be Cooler than today.

Today
High -- | Low -- °F
--% Chance of Precip.
Yesterday
High -- | Low -- °F
Precip. -- in
5:56 AM 6:58 PM
Waxing Crescent, 9% visible
Pressure 29.99 in
Visibility 12.0 miles
Clouds Clear
Dew Point 47 °F
Humidity 46%
Rainfall 0.00 in
Snow Depth Not available.
UV 3 out of 12
Pollen Not available.
Air Quality Not available.
Flu Activity Not available.
METAR PHSF 300256Z AUTO 25009G17KT 12SM CLR 20/08 A3031 RMK AO2 SLP155 T02040084 58007

More Conditions Fewer Conditions

Pressure 29.99 in
Visibility 12.0 miles
Clouds Clear
Dew Point 47 °F
Humidity 46%
Rainfall 0.00 in
Snow Depth Not available.
UV 3 out of 12
Pollen Not available.
Air Quality Not available.
Flu Activity Not available.
METAR PHSF 300256Z AUTO 25009G17KT 12SM CLR 20/08 A3031 RMK AO2 SLP155 T02040084 58007

More Conditions Fewer Conditions

10-Day Weather Forecast

Almanac

Astronomy

Jul. 29, 2014 Rise Set
Actual Time 5:56 AM HST 6:58 PM HST
Civil Twilight 5:32 AM HST 7:21 PM HST
Nautical Twilight 5:05 AM HST 7:49 PM HST
Astronomical Twilight 4:36 AM HST 8:17 PM HST
Moon 8:14 AM HST (7/29) 8:48 PM HST (7/29)
Length of Visible Light 13h 48m
Length of Day
13h 01m
Tomorrow will be 0m 47s shorter.
Waxing Crescent, 9% of the Moon is Illuminated
Today
Waxing Crescent
Aug 3
First Quarter
Aug 10
Full
Aug 17
Last Quarter
Aug 25
New

Today's Extremes

State Highs State Lows

Community

WunderPhotos

Upload Photos

1,738,991 photos uploaded!

WunderBlogs® & News

By Dr. Jeff Masters
Director of Meteorology, Weather Underground
By Kari Strenfel
Meteorologist, Weather Underground
By Christopher C. Burt
Weather Historian, Weather Underground
July 29, 2014
July 29, 2014
July 29, 2014

Nearby

Snow Depth

Station Depth Elevation
No new snow has been reported.

Earthquake Activity

City Distance Mag. Time & Date
No recent earthquake activity has been reported nearby.
Minimum magnitude displayed is 2.5.

Coastal Water Temperatures

Place Temperature
No Stations Reporting

Nearby Weather Stations

Station Location Temp. Heat Index Dew Point Humidity Wind Precip. Elev Updated Type
Volcano Village, Volcano, HI 63.1 °F - 62 °F 97% NNE  at  4.0 mph 0.00 in / hr 3796 ft 5:45 PM HST Normal
Kalapana Seaview Estates, Pāhoa, HI 79.9 °F 84 °F 72 °F 76% NNE  at  2.7 mph - / hr 151 ft 5:43 PM HST Normal
Kalani, Pahoa, HI 81.7 °F 93 °F 81 °F 98% NW  at  2.2 mph - / hr 141 ft 5:44 PM HST Normal
Kamuela, HI 57.5 °F - 49 °F 74% North  at  3.4 mph 0.00 in / hr 8081 ft 5:44 PM HST Normal

Show More Stations Show Fewer Stations